createdAt,value
2022-12-07T00:01:22.755Z,3.15
2022-12-07T00:03:52.510Z,3.13
2022-12-07T00:06:19.789Z,3.01
2022-12-07T00:08:47.395Z,3.10
2022-12-07T00:11:17.712Z,3.12
2022-12-07T00:13:45.346Z,3.06
2022-12-07T00:16:26.699Z,3.09
2022-12-07T00:18:53.783Z,3.08
2022-12-07T00:21:23.784Z,2.92
2022-12-07T00:23:52.358Z,2.83
2022-12-07T00:26:23.863Z,3.09
2022-12-07T00:28:53.945Z,3.11
2022-12-07T00:31:24.496Z,3.09
2022-12-07T00:33:51.343Z,2.98
2022-12-07T00:36:26.035Z,3.06
2022-12-07T00:38:55.229Z,3.02
2022-12-07T00:41:24.145Z,2.95
2022-12-07T00:43:52.029Z,2.94
2022-12-07T00:46:20.887Z,3.06
2022-12-07T00:48:49.357Z,3.01
2022-12-07T00:51:18.284Z,3.06
2022-12-07T00:53:45.676Z,3.15
2022-12-07T00:56:15.085Z,3.10
2022-12-07T00:58:42.193Z,2.94
2022-12-07T01:01:11.544Z,2.93
2022-12-07T01:03:39.060Z,2.95
2022-12-07T01:06:06.672Z,3.10
2022-12-07T01:08:35.116Z,3.12
2022-12-07T01:11:07.034Z,3.12
2022-12-07T01:13:36.110Z,3.07
2022-12-07T01:16:05.474Z,3.02
2022-12-07T01:18:34.591Z,2.95
2022-12-07T01:21:06.910Z,2.95
2022-12-07T01:23:35.947Z,2.88
2022-12-07T01:26:06.583Z,2.98
2022-12-07T01:28:34.473Z,2.98
2022-12-07T01:31:04.198Z,2.91
2022-12-07T01:33:36.823Z,2.92
2022-12-07T01:36:17.922Z,2.86
2022-12-07T01:38:45.597Z,2.85
2022-12-07T01:41:13.424Z,2.91
2022-12-07T01:44:11.952Z,2.90
2022-12-07T01:46:39.748Z,2.78
2022-12-07T01:49:11.664Z,2.84
2022-12-07T01:51:41.311Z,2.76
2022-12-07T01:54:09.384Z,2.90
2022-12-07T01:56:37.470Z,2.87
2022-12-07T01:59:04.584Z,2.82
2022-12-07T02:01:31.716Z,2.84
2022-12-07T02:03:59.551Z,2.77
2022-12-07T02:06:27.186Z,2.75
2022-12-07T02:08:54.687Z,2.64
2022-12-07T02:11:22.993Z,2.73
2022-12-07T02:13:50.554Z,2.72
2022-12-07T02:16:48.846Z,2.75
2022-12-07T02:19:53.208Z,2.80
2022-12-07T02:22:47.431Z,2.78
2022-12-07T02:25:31.706Z,2.76
2022-12-07T02:28:08.194Z,2.87
2022-12-07T02:30:39.661Z,2.86
2022-12-07T02:33:29.706Z,2.71
2022-12-07T02:36:19.306Z,2.75
2022-12-07T02:39:16.112Z,2.47
2022-12-07T02:41:50.304Z,2.71
2022-12-07T02:44:24.474Z,2.61
2022-12-07T02:47:06.278Z,2.56
2022-12-07T02:49:33.307Z,2.65
2022-12-07T02:51:59.986Z,2.59
2022-12-07T02:54:26.824Z,2.53
2022-12-07T02:57:20.129Z,2.48
2022-12-07T02:59:55.711Z,2.50
2022-12-07T03:02:28.465Z,2.55
2022-12-07T03:05:13.473Z,2.46
2022-12-07T03:08:07.232Z,2.52
2022-12-07T03:10:56.206Z,2.44
2022-12-07T03:13:35.847Z,2.36
2022-12-07T03:16:34.681Z,2.40
2022-12-07T03:19:07.155Z,2.27
2022-12-07T03:21:40.874Z,2.29
2022-12-07T03:24:18.633Z,2.26
2022-12-07T03:26:54.641Z,2.27
2022-12-07T03:29:26.516Z,2.26
2022-12-07T03:32:03.518Z,2.14
2022-12-07T03:34:58.755Z,2.28
2022-12-07T03:37:35.151Z,2.35
2022-12-07T03:40:12.513Z,2.39
2022-12-07T03:42:39.792Z,2.34
2022-12-07T03:45:08.106Z,2.19
2022-12-07T03:47:44.755Z,2.22
2022-12-07T03:50:46.627Z,2.43
2022-12-07T03:53:21.551Z,2.37
2022-12-07T03:55:50.351Z,2.29
2022-12-07T03:58:20.234Z,2.29
2022-12-07T04:00:47.946Z,2.38
2022-12-07T04:03:14.937Z,2.37
2022-12-07T04:05:42.118Z,2.33
2022-12-07T04:08:09.052Z,2.42
2022-12-07T04:10:35.973Z,2.42
2022-12-07T04:13:02.912Z,2.37
2022-12-07T04:15:29.607Z,2.50
2022-12-07T04:17:56.353Z,2.41
2022-12-07T04:20:23.191Z,2.41
2022-12-07T04:22:50.033Z,2.37
2022-12-07T04:25:16.830Z,2.41
2022-12-07T04:27:43.552Z,2.57
2022-12-07T04:30:11.041Z,2.52
2022-12-07T04:32:38.186Z,2.49
2022-12-07T04:35:05.783Z,2.59
2022-12-07T04:37:32.593Z,2.48
2022-12-07T04:39:59.555Z,2.52
2022-12-07T04:42:26.424Z,2.56
2022-12-07T04:44:53.183Z,2.44
2022-12-07T04:47:19.896Z,2.42
2022-12-07T04:49:46.689Z,2.57
2022-12-07T04:52:13.633Z,2.53
2022-12-07T04:54:40.389Z,2.56
2022-12-07T04:57:07.155Z,2.44
2022-12-07T04:59:33.909Z,2.58
2022-12-07T05:02:00.624Z,2.54
2022-12-07T05:04:27.431Z,2.48
2022-12-07T05:06:54.171Z,2.39
2022-12-07T05:09:20.942Z,2.47
2022-12-07T05:11:47.751Z,2.54
2022-12-07T05:14:18.036Z,2.56
2022-12-07T05:16:46.299Z,2.53
2022-12-07T05:19:13.434Z,2.70
2022-12-07T05:21:40.913Z,2.46
2022-12-07T05:24:09.351Z,2.45
2022-12-07T05:26:36.152Z,2.33
2022-12-07T05:29:03.075Z,2.13
2022-12-07T05:31:29.941Z,2.15
2022-12-07T05:33:56.871Z,2.34
2022-12-07T05:36:24.310Z,2.48
2022-12-07T05:38:51.195Z,2.36
2022-12-07T05:41:38.953Z,2.38
2022-12-07T05:44:06.707Z,2.47
2022-12-07T05:46:33.785Z,2.45
2022-12-07T05:49:00.591Z,2.47
2022-12-07T05:51:27.345Z,2.49
2022-12-07T05:53:54.194Z,2.45
2022-12-07T05:56:21.064Z,2.29
2022-12-07T05:59:06.384Z,2.55
2022-12-07T06:01:33.264Z,2.56
2022-12-07T06:11:39.997Z,2.55
2022-12-07T06:14:06.679Z,2.53
2022-12-07T06:16:33.434Z,2.52
2022-12-07T06:19:00.165Z,2.50
2022-12-07T06:21:27.749Z,2.40
2022-12-07T06:23:54.696Z,2.37
2022-12-07T06:26:21.798Z,2.50
2022-12-07T06:28:48.484Z,2.46
2022-12-07T06:31:15.651Z,2.57
2022-12-07T06:33:43.268Z,2.54
2022-12-07T06:36:10.116Z,2.72
2022-12-07T06:38:36.969Z,2.44
2022-12-07T06:41:04.140Z,2.68
2022-12-07T06:43:31.128Z,2.73
2022-12-07T06:45:57.890Z,2.53
2022-12-07T06:48:25.026Z,2.50
2022-12-07T06:50:55.067Z,2.64
2022-12-07T06:53:23.241Z,2.72
2022-12-07T06:55:50.407Z,2.81
2022-12-07T06:58:17.648Z,2.80
2022-12-07T07:00:45.051Z,2.89
2022-12-07T07:03:12.095Z,2.92
2022-12-07T07:05:38.820Z,2.92
2022-12-07T07:08:21.850Z,3.02
2022-12-07T07:10:49.424Z,3.01
2022-12-07T07:13:16.156Z,2.86
2022-12-07T07:15:43.123Z,2.67
2022-12-07T07:18:09.890Z,2.92
2022-12-07T07:20:36.630Z,2.98
2022-12-07T07:23:03.438Z,3.02
2022-12-07T07:25:30.669Z,2.85
2022-12-07T07:27:57.380Z,2.87
2022-12-07T07:30:24.277Z,2.95
2022-12-07T07:32:51.048Z,2.95
2022-12-07T07:35:18.018Z,2.90
2022-12-07T07:37:44.728Z,3.03
2022-12-07T07:40:11.849Z,2.81
2022-12-07T07:42:38.508Z,2.86
2022-12-07T07:45:05.733Z,2.66
2022-12-07T07:47:32.376Z,2.71
2022-12-07T07:49:59.506Z,2.85
2022-12-07T07:52:26.460Z,2.69
2022-12-07T07:54:53.479Z,2.91
2022-12-07T07:57:20.200Z,2.84
2022-12-07T07:59:46.839Z,2.84
2022-12-07T08:02:16.448Z,2.72
2022-12-07T08:04:43.475Z,2.77
2022-12-07T08:07:10.247Z,2.79
2022-12-07T08:09:36.943Z,2.90
2022-12-07T08:12:03.849Z,2.96
2022-12-07T08:14:30.537Z,3.05
2022-12-07T08:16:57.238Z,3.13
2022-12-07T08:19:24.338Z,3.15
2022-12-07T08:21:51.047Z,3.13
2022-12-07T08:24:17.750Z,3.17
2022-12-07T08:26:44.727Z,3.17
2022-12-07T08:29:11.386Z,2.89
2022-12-07T08:31:38.983Z,2.91
2022-12-07T08:34:05.698Z,2.94
2022-12-07T08:36:32.378Z,2.95
2022-12-07T08:39:30.255Z,2.85
2022-12-07T08:41:45.650Z,3.15
2022-12-07T08:44:12.292Z,3.27
2022-12-07T08:47:01.935Z,3.29
2022-12-07T08:49:36.799Z,3.24
2022-12-07T08:52:06.052Z,3.36
2022-12-07T08:54:37.206Z,3.43
2022-12-07T08:57:05.206Z,3.37
2022-12-07T08:59:32.285Z,3.34
2022-12-07T09:01:58.956Z,3.43
2022-12-07T09:04:25.661Z,3.43
2022-12-07T09:06:52.436Z,3.52
2022-12-07T09:09:19.207Z,3.61
2022-12-07T09:11:46.405Z,3.47
2022-12-07T09:14:13.938Z,3.66
2022-12-07T09:16:40.979Z,3.68
2022-12-07T09:19:09.028Z,3.80
2022-12-07T09:21:35.750Z,3.88
2022-12-07T09:24:02.819Z,3.93
2022-12-07T09:26:29.577Z,3.86
2022-12-07T09:28:56.278Z,4.01
2022-12-07T09:31:24.707Z,3.98
2022-12-07T09:34:02.180Z,3.97
2022-12-07T09:36:30.216Z,3.97
2022-12-07T09:38:57.016Z,3.95
2022-12-07T09:41:26.487Z,4.06
2022-12-07T09:43:58.599Z,4.18
2022-12-07T09:46:25.399Z,4.30
2022-12-07T09:48:52.613Z,4.27
2022-12-07T09:51:25.086Z,4.35
2022-12-07T09:53:54.833Z,4.54
2022-12-07T09:56:23.763Z,4.55
2022-12-07T09:58:52.726Z,4.59
2022-12-07T10:01:22.429Z,4.56
2022-12-07T10:03:55.776Z,4.57
2022-12-07T10:06:24.557Z,4.57
2022-12-07T10:08:51.478Z,4.70
2022-12-07T10:11:18.192Z,4.49
2022-12-07T10:13:54.192Z,4.78
2022-12-07T10:16:29.400Z,4.85
2022-12-07T10:18:56.324Z,4.87
2022-12-07T10:21:27.747Z,4.96
2022-12-07T10:24:06.257Z,4.90
2022-12-07T10:26:48.134Z,5.18
2022-12-07T10:29:22.394Z,5.23
2022-12-07T10:31:59.197Z,5.08
2022-12-07T10:34:36.418Z,4.93
2022-12-07T10:37:26.796Z,5.11
2022-12-07T10:39:55.713Z,5.17
2022-12-07T10:42:30.924Z,5.18
2022-12-07T10:45:13.036Z,5.10
2022-12-07T10:48:21.325Z,5.29
2022-12-07T10:51:00.335Z,5.18
2022-12-07T10:53:42.996Z,5.23
2022-12-07T10:56:27.607Z,5.48
2022-12-07T10:59:06.414Z,5.59
2022-12-07T11:01:47.510Z,5.90
2022-12-07T11:04:42.284Z,6.56
2022-12-07T11:07:27.535Z,7.06
2022-12-07T11:10:10.819Z,7.05
2022-12-07T11:12:45.344Z,6.54
2022-12-07T11:15:25.945Z,6.44
2022-12-07T11:18:07.826Z,6.46
2022-12-07T11:20:38.356Z,6.14
2022-12-07T11:23:49.926Z,6.15
2022-12-07T11:26:22.739Z,6.24
2022-12-07T11:29:04.764Z,6.12
2022-12-07T11:31:38.711Z,6.25
2022-12-07T11:34:26.256Z,6.25
2022-12-07T11:36:57.974Z,6.00
2022-12-07T11:39:56.754Z,6.02
2022-12-07T11:42:32.576Z,6.22
2022-12-07T11:45:15.538Z,6.23
2022-12-07T11:47:53.417Z,6.35
2022-12-07T11:50:23.386Z,6.26
2022-12-07T11:53:03.836Z,6.30
2022-12-07T11:55:41.633Z,6.14
2022-12-07T11:58:29.985Z,6.32
2022-12-07T12:01:13.978Z,6.26
2022-12-07T12:03:52.751Z,6.41
2022-12-07T12:06:21.504Z,6.33
2022-12-07T12:15:19.501Z,6.03
2022-12-07T12:18:18.487Z,6.06
2022-12-07T12:20:54.414Z,5.80
2022-12-07T12:23:35.360Z,5.83
2022-12-07T12:26:04.996Z,5.57
2022-12-07T12:28:46.751Z,5.77
2022-12-07T12:31:22.564Z,5.93
2022-12-07T12:33:55.736Z,5.85
2022-12-07T12:36:28.561Z,5.97
2022-12-07T12:39:33.866Z,5.74
2022-12-07T12:42:01.474Z,5.88
2022-12-07T12:44:30.848Z,5.99
2022-12-07T12:47:03.084Z,6.32
2022-12-07T12:49:29.738Z,6.45
2022-12-07T12:52:04.382Z,6.85
2022-12-07T12:54:37.587Z,6.75
2022-12-07T12:57:20.705Z,6.92
2022-12-07T12:59:53.415Z,6.91
2022-12-07T13:02:30.118Z,6.97
2022-12-07T13:05:11.249Z,6.82
2022-12-07T13:07:51.103Z,6.43
2022-12-07T13:10:33.690Z,6.33
2022-12-07T13:13:13.599Z,6.32
2022-12-07T13:16:15.776Z,6.50
2022-12-07T13:18:42.898Z,6.52
2022-12-07T13:21:09.535Z,6.49
2022-12-07T13:23:45.104Z,6.45
2022-12-07T13:26:23.936Z,6.45
2022-12-07T13:28:51.847Z,6.35
2022-12-07T13:31:31.384Z,6.22
2022-12-07T13:33:58.098Z,6.28
2022-12-07T13:36:27.076Z,6.31
2022-12-07T13:38:59.216Z,5.99
2022-12-07T13:41:30.416Z,6.16
2022-12-07T13:44:10.627Z,6.13
2022-12-07T13:47:00.706Z,5.95
2022-12-07T13:49:32.953Z,5.83
2022-12-07T13:52:19.858Z,5.59
2022-12-07T13:54:56.839Z,5.51
2022-12-07T13:57:26.241Z,5.51
2022-12-07T13:59:53.863Z,5.50
2022-12-07T14:02:34.045Z,5.61
2022-12-07T14:05:13.630Z,5.65
2022-12-07T14:08:00.385Z,5.35
2022-12-07T14:10:34.210Z,5.43
2022-12-07T14:13:02.626Z,5.42
2022-12-07T14:15:35.609Z,5.42
2022-12-07T14:18:05.657Z,5.44
2022-12-07T14:20:35.024Z,5.34
2022-12-07T14:23:10.354Z,5.39
2022-12-07T14:25:50.978Z,5.47
2022-12-07T14:28:33.309Z,5.56
2022-12-07T14:31:01.436Z,5.70
2022-12-07T14:33:29.257Z,5.63
2022-12-07T14:35:59.076Z,5.74
2022-12-07T14:38:27.221Z,5.47
2022-12-07T14:40:55.293Z,5.43
2022-12-07T14:43:22.008Z,5.25
2022-12-07T14:45:48.822Z,5.32
2022-12-07T14:53:57.144Z,5.12
2022-12-07T14:56:25.484Z,5.07
2022-12-07T14:58:52.610Z,4.99
2022-12-07T15:01:19.411Z,4.98
2022-12-07T15:03:46.176Z,4.94
2022-12-07T15:06:17.177Z,4.95
2022-12-07T15:08:45.577Z,5.02
2022-12-07T15:11:17.241Z,4.94
2022-12-07T15:14:02.360Z,4.85
2022-12-07T15:16:40.700Z,4.82
2022-12-07T15:19:29.952Z,4.92
2022-12-07T15:21:57.868Z,4.87
2022-12-07T15:24:25.340Z,4.79
2022-12-07T15:26:52.720Z,4.62
2022-12-07T15:29:23.319Z,4.78
2022-12-07T15:31:57.437Z,4.76
2022-12-07T15:34:26.747Z,4.59
2022-12-07T15:36:53.465Z,4.59
2022-12-07T15:39:20.203Z,4.73
2022-12-07T15:41:47.094Z,4.60
2022-12-07T15:44:33.258Z,4.62
2022-12-07T15:47:00.596Z,4.45
2022-12-07T15:49:28.697Z,4.46
2022-12-07T15:51:55.506Z,4.45
2022-12-07T15:54:26.332Z,4.43
2022-12-07T15:56:54.145Z,4.44
2022-12-07T15:59:20.891Z,4.29
2022-12-07T16:01:47.743Z,4.08
2022-12-07T16:04:14.971Z,4.11
2022-12-07T16:06:41.973Z,4.14
2022-12-07T16:09:09.295Z,4.20
2022-12-07T16:11:36.249Z,4.17
2022-12-07T16:14:03.571Z,4.13
2022-12-07T16:16:30.521Z,4.14
2022-12-07T16:18:58.684Z,4.08
2022-12-07T16:21:25.976Z,4.15
2022-12-07T16:23:53.335Z,4.12
2022-12-07T16:26:23.007Z,4.16
2022-12-07T16:28:54.078Z,4.08
2022-12-07T16:31:23.803Z,4.16
2022-12-07T16:33:52.325Z,4.09
2022-12-07T16:36:39.895Z,4.08
2022-12-07T16:39:07.197Z,4.08
2022-12-07T16:41:34.393Z,4.11
2022-12-07T16:44:07.323Z,4.04
2022-12-07T16:46:37.080Z,4.03
2022-12-07T16:49:04.607Z,4.07
2022-12-07T16:51:32.542Z,4.05
2022-12-07T16:54:00.031Z,3.93
2022-12-07T16:56:28.021Z,3.95
2022-12-07T16:58:55.909Z,3.96
2022-12-07T17:01:24.113Z,3.97
2022-12-07T17:03:51.497Z,3.73
2022-12-07T17:06:24.039Z,3.86
2022-12-07T17:08:52.168Z,3.93
2022-12-07T17:11:24.954Z,3.85
2022-12-07T17:14:10.715Z,3.85
2022-12-07T17:16:37.998Z,3.71
2022-12-07T17:19:09.725Z,3.59
2022-12-07T17:21:37.016Z,3.65
2022-12-07T17:24:06.450Z,3.60
2022-12-07T17:26:35.771Z,3.62
2022-12-07T17:29:04.913Z,3.55
2022-12-07T17:31:33.543Z,3.48
2022-12-07T17:34:00.501Z,3.55
2022-12-07T17:36:31.082Z,3.52
2022-12-07T17:38:58.509Z,3.57
2022-12-07T17:41:46.461Z,3.62
2022-12-07T17:44:15.805Z,3.54
2022-12-07T17:46:43.313Z,3.59
2022-12-07T17:49:10.382Z,3.56
2022-12-07T17:51:55.544Z,3.55
2022-12-07T17:54:22.626Z,3.65
2022-12-07T17:56:49.428Z,3.43
2022-12-07T17:59:16.816Z,3.57
2022-12-07T18:01:44.111Z,3.60
2022-12-07T18:04:10.886Z,3.39
2022-12-07T18:06:38.693Z,3.56
2022-12-07T18:09:05.726Z,3.49
2022-12-07T18:11:32.912Z,3.59
2022-12-07T18:14:00.033Z,3.59
2022-12-07T18:16:30.253Z,3.50
2022-12-07T18:19:04.993Z,3.49
2022-12-07T18:21:32.509Z,3.53
2022-12-07T18:24:02.470Z,3.62
2022-12-07T18:26:31.084Z,3.55
2022-12-07T18:29:00.510Z,3.57
2022-12-07T18:31:27.421Z,3.61
2022-12-07T18:33:56.389Z,3.47
2022-12-07T18:36:23.961Z,3.50
2022-12-07T18:38:51.512Z,3.45
2022-12-07T18:41:18.589Z,3.41
2022-12-07T18:43:45.388Z,3.33
2022-12-07T18:46:21.823Z,3.30
2022-12-07T18:48:50.656Z,3.26
2022-12-07T18:51:19.364Z,3.37
2022-12-07T18:53:46.469Z,3.30
2022-12-07T18:56:18.197Z,3.41
2022-12-07T18:59:08.943Z,3.36
2022-12-07T19:01:36.586Z,3.31
2022-12-07T19:04:03.672Z,3.28
2022-12-07T19:06:30.562Z,3.25
2022-12-07T19:08:57.582Z,3.28
2022-12-07T19:11:48.641Z,3.35
2022-12-07T19:14:16.712Z,3.33
2022-12-07T19:16:44.520Z,3.30
2022-12-07T19:19:11.406Z,3.29
2022-12-07T19:21:38.085Z,3.26
2022-12-07T19:24:06.128Z,3.04
2022-12-07T19:26:33.688Z,2.80
2022-12-07T19:29:00.470Z,2.75
2022-12-07T19:31:27.362Z,2.69
2022-12-07T19:33:54.430Z,2.64
2022-12-07T19:36:21.152Z,2.62
2022-12-07T19:38:47.830Z,2.69
2022-12-07T19:41:49.663Z,2.83
2022-12-07T19:44:19.318Z,2.81
2022-12-07T19:46:50.108Z,2.74
2022-12-07T19:49:17.511Z,2.77
2022-12-07T19:51:47.308Z,2.76
2022-12-07T19:54:15.829Z,2.80
2022-12-07T19:56:43.664Z,2.76
2022-12-07T19:59:12.153Z,2.83
2022-12-07T20:01:41.066Z,2.87
2022-12-07T20:04:11.483Z,2.76
2022-12-07T20:06:38.624Z,2.73
2022-12-07T20:09:05.903Z,2.75
2022-12-07T20:11:51.070Z,2.73
2022-12-07T20:14:18.065Z,2.69
2022-12-07T20:16:45.811Z,2.60
2022-12-07T20:19:14.926Z,2.55
2022-12-07T20:21:43.486Z,2.53
2022-12-07T20:24:22.874Z,2.50
2022-12-07T20:26:51.633Z,2.55
2022-12-07T20:29:21.159Z,2.45
2022-12-07T20:31:49.526Z,2.51
2022-12-07T20:34:16.967Z,2.37
2022-12-07T20:36:43.989Z,2.47
2022-12-07T20:39:11.432Z,2.45
2022-12-07T20:41:58.315Z,2.48
2022-12-07T20:44:25.445Z,2.41
2022-12-07T20:46:52.153Z,2.39
2022-12-07T20:49:18.951Z,2.50
2022-12-07T20:51:46.350Z,2.51
2022-12-07T20:54:14.108Z,2.41
2022-12-07T20:56:41.664Z,2.42
2022-12-07T20:59:10.861Z,2.42
2022-12-07T21:01:37.874Z,2.44
2022-12-07T21:04:05.063Z,2.43
2022-12-07T21:06:31.877Z,2.45
2022-12-07T21:09:00.585Z,2.45
2022-12-07T21:11:29.792Z,2.46
2022-12-07T21:13:56.621Z,2.44
2022-12-07T21:16:26.511Z,2.19
2022-12-07T21:18:56.871Z,2.44
2022-12-07T21:21:24.145Z,2.48
2022-12-07T21:23:56.863Z,2.39
2022-12-07T21:26:28.553Z,2.40
2022-12-07T21:28:56.916Z,2.43
2022-12-07T21:31:23.855Z,2.43
2022-12-07T21:33:50.673Z,2.41
2022-12-07T21:36:20.750Z,2.45
2022-12-07T21:38:48.926Z,2.35
2022-12-07T21:41:23.283Z,2.40
2022-12-07T21:43:50.928Z,2.46
2022-12-07T21:46:19.169Z,2.35
2022-12-07T21:48:54.396Z,2.47
2022-12-07T21:51:22.508Z,2.41
2022-12-07T21:53:50.342Z,2.35
2022-12-07T21:56:24.352Z,2.33
2022-12-07T21:58:52.874Z,2.32
2022-12-07T22:01:22.684Z,2.39
2022-12-07T22:03:51.744Z,2.28
2022-12-07T22:06:23.919Z,2.25
2022-12-07T22:08:51.630Z,2.19
2022-12-07T22:11:18.712Z,2.22
2022-12-07T22:14:09.844Z,2.25
2022-12-07T22:16:38.222Z,2.11
2022-12-07T22:19:06.071Z,2.23
2022-12-07T22:21:33.039Z,1.99
2022-12-07T22:23:59.796Z,2.02
2022-12-07T22:26:27.584Z,1.98
2022-12-07T22:28:54.408Z,2.07
2022-12-07T22:31:21.817Z,1.97
2022-12-07T22:33:49.432Z,2.00
2022-12-07T22:36:17.036Z,2.06
2022-12-07T22:38:44.753Z,2.00
2022-12-07T22:41:28.752Z,2.07
2022-12-07T22:43:56.462Z,1.96
2022-12-07T22:46:25.026Z,2.06
2022-12-07T22:48:53.302Z,2.05
2022-12-07T22:51:24.471Z,2.07
2022-12-07T22:53:51.745Z,2.04
2022-12-07T22:56:18.595Z,2.05
2022-12-07T22:58:45.593Z,2.03
2022-12-07T23:01:15.345Z,2.02
2022-12-07T23:03:42.995Z,2.02
2022-12-07T23:06:14.750Z,2.03
2022-12-07T23:08:41.874Z,2.00
2022-12-07T23:11:11.304Z,2.04
2022-12-07T23:13:38.296Z,1.96
2022-12-07T23:16:14.157Z,1.99
2022-12-07T23:18:42.114Z,2.10
2022-12-07T23:21:09.947Z,2.09
2022-12-07T23:23:37.190Z,2.17
2022-12-07T23:26:09.784Z,2.22
2022-12-07T23:28:37.726Z,2.27
2022-12-07T23:31:16.126Z,2.25
2022-12-07T23:33:43.432Z,2.17
2022-12-07T23:36:12.909Z,2.20
2022-12-07T23:38:41.511Z,2.20
2022-12-07T23:41:10.326Z,2.19
2022-12-07T23:43:37.486Z,2.21
2022-12-07T23:46:09.937Z,2.18
2022-12-07T23:48:38.944Z,2.17
2022-12-07T23:51:08.428Z,2.20
2022-12-07T23:53:36.979Z,2.30
2022-12-07T23:56:04.888Z,2.28
2022-12-07T23:58:31.756Z,2.28
